Time;durP1;ratioP1;P1;durP2;ratioP2;P2;SDS_P1;SDS_P2;PMS_P1;PMS_P2;Temp;Humidity;BMP_temperature;BMP_pressure;BME280_temperature;BME280_humidity;BME280_pressure;Samples;Min_cycle;Max_cycle;Signal;HPM_P1;HPM_P2
2021/06/03 00:00:08;;;;;;;6.30;5.70;;;19.20;66.80;;;;;;5033239;28;20481;-49
2021/06/03 00:02:34;;;;;;;7.57;5.70;;;19.10;66.80;;;;;;5033767;28;20435;-49
2021/06/03 00:05:03;;;;;;;5.80;5.30;;;19.00;66.80;;;;;;5033934;28;20934;-50
2021/06/03 00:07:29;;;;;;;9.67;5.50;;;18.80;66.70;;;;;;5033938;28;20831;-48
2021/06/03 00:09:55;;;;;;;7.40;6.53;;;19.00;67.00;;;;;;5033397;28;20530;-49
2021/06/03 00:12:21;;;;;;;8.93;6.03;;;18.60;66.50;;;;;;5033883;28;20988;-49
2021/06/03 00:14:48;;;;;;;7.83;5.87;;;18.50;66.60;;;;;;5033814;28;20461;-49
2021/06/03 00:17:14;;;;;;;7.90;6.03;;;18.40;66.40;;;;;;5033562;28;20435;-49
2021/06/03 00:19:40;;;;;;;6.70;6.00;;;18.90;67.20;;;;;;5033000;28;20481;-49
2021/06/03 00:22:07;;;;;;;6.17;5.57;;;18.50;66.80;;;;;;5033417;28;20573;-49
2021/06/03 00:24:33;;;;;;;6.70;6.00;;;18.50;66.80;;;;;;5033265;28;21029;-49
2021/06/03 00:27:00;;;;;;;7.27;6.10;;;18.50;66.90;;;;;;5031793;28;20454;-49
2021/06/03 00:29:26;;;;;;;6.57;5.70;;;18.60;67.00;;;;;;5033280;28;20555;-49
2021/06/03 00:31:52;;;;;;;7.70;6.57;;;18.60;67.00;;;;;;5033252;28;20889;-49
2021/06/03 00:34:19;;;;;;;7.53;6.60;;;18.50;67.00;;;;;;5033273;28;20514;-49
2021/06/03 00:36:45;;;;;;;6.70;5.97;;;18.50;67.10;;;;;;5033551;28;20429;-49
2021/06/03 00:39:13;;;;;;;7.40;5.40;;;18.40;67.10;;;;;;5032926;28;20532;-49
2021/06/03 00:41:39;;;;;;;6.70;6.10;;;18.60;67.40;;;;;;5033112;28;20839;-49
2021/06/03 00:44:06;;;;;;;7.13;6.40;;;18.60;67.40;;;;;;5033099;28;20446;-49
2021/06/03 00:46:32;;;;;;;6.53;5.93;;;18.40;67.30;;;;;;5032923;28;20564;-49
2021/06/03 00:48:59;;;;;;;7.17;6.23;;;18.60;67.70;;;;;;5032587;28;20934;-49
2021/06/03 00:51:29;;;;;;;8.13;5.93;;;18.50;67.60;;;;;;5031584;28;20449;-49
2021/06/03 00:53:55;;;;;;;6.73;5.53;;;18.60;67.70;;;;;;5031567;28;20554;-49
2021/06/03 00:56:23;;;;;;;6.47;5.87;;;18.50;67.60;;;;;;5033104;28;21018;-49
2021/06/03 00:58:49;;;;;;;6.33;5.40;;;18.30;67.50;;;;;;5032250;28;20570;-49
2021/06/03 01:01:21;;;;;;;9.17;5.93;;;18.50;67.80;;;;;;5031170;28;20450;-49
2021/06/03 01:03:48;;;;;;;6.47;5.77;;;18.30;67.50;;;;;;5031479;28;20455;-49
2021/06/03 01:06:14;;;;;;;7.37;6.50;;;17.90;67.20;;;;;;5033078;28;20857;-49
2021/06/03 01:08:48;;;;;;;5.90;5.40;;;18.10;67.50;;;;;;5031526;28;20505;-49
2021/06/03 01:11:18;;;;;;;6.77;6.13;;;18.30;67.70;;;;;;5031969;28;20872;-50
2021/06/03 01:13:52;;;;;;;6.27;5.67;;;18.10;67.50;;;;;;5033315;28;20521;-47
2021/06/03 01:16:22;;;;;;;6.70;6.10;;;18.20;67.50;;;;;;5031781;28;20535;-48
2021/06/03 01:18:50;;;;;;;9.50;6.67;;;17.90;67.20;;;;;;5031239;28;20478;-49
2021/06/03 01:21:24;;;;;;;8.90;6.73;;;17.80;67.20;;;;;;5031467;28;20546;-49
2021/06/03 01:24:00;;;;;;;6.83;5.80;;;17.80;67.20;;;;;;5031534;28;20458;-49
2021/06/03 01:26:28;;;;;;;7.73;6.33;;;17.80;67.30;;;;;;5031380;28;20466;-49
2021/06/03 01:28:55;;;;;;;6.50;5.57;;;17.80;67.30;;;;;;5031140;28;20451;-49
2021/06/03 01:31:21;;;;;;;6.90;6.20;;;18.00;67.50;;;;;;5032790;28;21086;-49
2021/06/03 01:33:47;;;;;;;7.57;6.87;;;18.00;67.60;;;;;;5032685;28;20478;-49
2021/06/03 01:36:16;;;;;;;7.00;6.40;;;17.70;67.30;;;;;;5030756;28;20468;-49
2021/06/03 01:38:43;;;;;;;7.23;5.90;;;18.10;67.70;;;;;;5032378;28;20498;-48
2021/06/03 01:41:13;;;;;;;8.30;5.80;;;17.90;67.60;;;;;;5032825;28;20496;-49
2021/06/03 01:43:45;;;;;;;6.70;5.80;;;17.90;67.60;;;;;;5031694;28;20529;-49
2021/06/03 01:46:12;;;;;;;7.63;6.30;;;17.70;67.50;;;;;;5030868;28;20496;-48
2021/06/03 01:48:40;;;;;;;8.17;6.30;;;17.60;67.40;;;;;;5031118;28;20482;-48
2021/06/03 01:51:09;;;;;;;8.40;5.77;;;17.70;67.50;;;;;;5031288;28;20454;-48
2021/06/03 01:53:36;;;;;;;6.30;5.70;;;17.60;67.50;;;;;;5030958;28;20465;-49
2021/06/03 01:56:05;;;;;;;12.80;5.90;;;17.90;67.90;;;;;;5032270;28;20537;-48
2021/06/03 01:58:32;;;;;;;7.50;5.63;;;17.80;67.80;;;;;;5031979;28;20567;-49
2021/06/03 02:01:03;;;;;;;7.63;6.70;;;17.60;67.60;;;;;;5030897;28;20521;-48
2021/06/03 02:03:29;;;;;;;6.57;5.97;;;17.50;67.60;;;;;;5030872;28;20452;-48
2021/06/03 02:05:57;;;;;;;8.83;6.43;;;17.70;67.90;;;;;;5030753;28;20477;-48
2021/06/03 02:08:24;;;;;;;7.00;6.30;;;18.00;68.20;;;;;;5031758;28;20598;-49
2021/06/03 02:11:04;;;;;;;8.77;6.50;;;17.60;67.90;;;;;;5030679;28;20548;-48
2021/06/03 02:13:35;;;;;;;8.50;6.60;;;17.70;68.00;;;;;;5030158;28;20959;-48
2021/06/03 02:16:12;;;;;;;7.47;5.87;;;17.60;68.00;;;;;;5029462;28;20897;-48
2021/06/03 02:18:43;;;;;;;9.47;6.50;;;17.30;67.70;;;;;;5029840;28;20474;-50
2021/06/03 02:21:11;;;;;;;15.30;6.83;;;17.80;68.40;;;;;;5030386;28;20524;-49
2021/06/03 02:23:38;;;;;;;6.50;5.87;;;17.50;68.20;;;;;;5030372;28;20449;-49
2021/06/03 02:26:05;;;;;;;7.27;6.23;;;17.40;68.10;;;;;;5031527;28;20445;-49
2021/06/03 02:28:37;;;;;;;7.10;6.33;;;17.40;68.20;;;;;;5030056;28;20450;-49
2021/06/03 02:31:06;;;;;;;8.87;6.60;;;17.50;68.20;;;;;;5030419;28;20454;-49
2021/06/03 02:33:32;;;;;;;6.77;6.07;;;17.50;68.40;;;;;;5031674;28;20833;-49
2021/06/03 02:36:01;;;;;;;10.43;6.93;;;17.40;68.20;;;;;;5030267;28;20513;-49
2021/06/03 02:38:30;;;;;;;6.60;5.93;;;17.50;69.10;;;;;;5029654;28;20534;-49
2021/06/03 02:41:02;;;;;;;7.00;6.30;;;17.70;68.70;;;;;;5030237;28;20998;-49
2021/06/03 02:43:29;;;;;;;7.90;6.50;;;17.70;68.70;;;;;;5030376;28;20498;-49
2021/06/03 02:45:56;;;;;;;7.00;5.80;;;17.40;68.40;;;;;;5029594;28;20483;-49
2021/06/03 02:48:24;;;;;;;6.97;6.27;;;17.30;68.40;;;;;;5030961;28;20443;-49
2021/06/03 02:50:51;;;;;;;11.40;6.13;;;17.50;68.70;;;;;;5030005;28;20485;-49
2021/06/03 02:53:17;;;;;;;11.73;6.60;;;17.60;68.90;;;;;;5030099;28;20528;-48
2021/06/03 02:55:45;;;;;;;9.10;6.50;;;17.30;68.60;;;;;;5030080;28;20476;-48
2021/06/03 02:58:14;;;;;;;8.53;6.17;;;17.30;68.60;;;;;;5030203;28;20462;-49
2021/06/03 03:00:44;;;;;;;6.67;5.73;;;17.40;68.80;;;;;;5032044;28;20437;-49
2021/06/03 03:03:12;;;;;;;9.13;7.03;;;17.50;68.90;;;;;;5029962;28;20458;-48
2021/06/03 03:05:43;;;;;;;9.00;7.10;;;17.30;68.80;;;;;;5031278;28;20455;-49
2021/06/03 03:08:13;;;;;;;8.60;6.90;;;17.30;68.80;;;;;;5029450;28;20759;-49
2021/06/03 03:10:41;;;;;;;11.47;6.93;;;17.30;68.80;;;;;;5029748;28;20444;-49
2021/06/03 03:13:09;;;;;;;7.37;6.50;;;17.30;69.00;;;;;;5029703;28;20547;-49
2021/06/03 03:15:38;;;;;;;10.90;7.27;;;17.40;69.10;;;;;;5030857;28;20481;-49
2021/06/03 03:18:05;;;;;;;10.03;6.87;;;17.30;69.10;;;;;;5029167;28;20512;-48
2021/06/03 03:20:33;;;;;;;8.63;7.00;;;17.30;69.30;;;;;;5030929;28;20482;-49
2021/06/03 03:23:01;;;;;;;10.20;6.77;;;17.40;69.50;;;;;;5030919;28;20991;-49
2021/06/03 03:25:29;;;;;;;6.90;6.13;;;17.30;69.50;;;;;;5030754;28;20469;-49
2021/06/03 03:27:57;;;;;;;7.47;6.70;;;17.20;69.50;;;;;;5029380;28;20467;-49
2021/06/03 03:30:25;;;;;;;7.37;6.67;;;17.20;69.60;;;;;;5029031;28;20457;-49
2021/06/03 03:32:52;;;;;;;7.00;6.30;;;17.50;70.10;;;;;;5029273;28;20923;-49
2021/06/03 03:35:18;;;;;;;6.80;6.03;;;17.40;70.00;;;;;;5029172;28;20993;-49
2021/06/03 03:37:46;;;;;;;8.93;7.23;;;17.30;69.80;;;;;;5029490;28;20581;-49
2021/06/03 03:40:16;;;;;;;7.03;6.40;;;17.30;69.60;;;;;;5029093;28;20480;-49
2021/06/03 03:42:44;;;;;;;7.20;5.97;;;17.50;69.70;;;;;;5030786;28;20437;-49
2021/06/03 03:45:14;;;;;;;6.70;5.80;;;17.50;69.50;;;;;;5029037;28;20515;-49
2021/06/03 03:47:41;;;;;;;10.27;7.00;;;17.30;69.10;;;;;;5031537;28;20971;-48
2021/06/03 03:50:10;;;;;;;9.20;6.50;;;17.30;69.00;;;;;;5032984;28;20445;-49
2021/06/03 03:52:39;;;;;;;12.03;6.87;;;17.70;69.40;;;;;;5029334;28;20447;-48
2021/06/03 03:55:07;;;;;;;17.60;7.20;;;17.50;69.00;;;;;;5030351;28;20560;-49
2021/06/03 03:57:35;;;;;;;8.37;6.20;;;17.60;69.10;;;;;;5031091;28;20433;-48
2021/06/03 04:00:06;;;;;;;10.90;6.80;;;17.60;69.10;;;;;;5032402;28;20961;-49
2021/06/03 04:02:43;;;;;;;6.97;6.33;;;17.60;68.80;;;;;;5034293;28;20416;-49
2021/06/03 04:05:12;;;;;;;6.93;6.20;;;17.80;68.90;;;;;;5032735;28;20470;-49
2021/06/03 04:07:39;;;;;;;7.50;6.47;;;17.50;68.30;;;;;;5032539;28;20947;-49
2021/06/03 04:10:10;;;;;;;7.27;6.53;;;17.60;68.10;;;;;;5032145;28;20498;-49
2021/06/03 04:12:38;;;;;;;10.03;6.37;;;17.90;68.10;;;;;;5032669;28;20452;-49
2021/06/03 04:15:05;;;;;;;6.43;5.80;;;18.10;68.20;;;;;;5033590;28;20458;-49
2021/06/03 04:17:33;;;;;;;8.63;6.93;;;18.10;67.90;;;;;;5032186;28;20531;-49
2021/06/03 04:19:59;;;;;;;9.50;6.80;;;18.10;67.50;;;;;;5033171;28;20477;-49
2021/06/03 04:22:25;;;;;;;8.07;7.27;;;18.60;67.80;;;;;;5033433;28;20431;-49
2021/06/03 04:24:52;;;;;;;8.03;6.97;;;18.40;67.30;;;;;;5033656;28;20808;-49
2021/06/03 04:27:19;;;;;;;6.80;6.20;;;18.50;67.00;;;;;;5033550;28;20492;-49
2021/06/03 04:29:46;;;;;;;9.70;6.50;;;18.70;66.80;;;;;;5033280;28;20494;-49
2021/06/03 04:32:12;;;;;;;8.53;6.70;;;18.60;66.50;;;;;;5033445;28;20538;-49
2021/06/03 04:34:38;;;;;;;8.37;7.57;;;18.40;65.90;;;;;;5033591;28;20464;-49
2021/06/03 04:37:04;;;;;;;7.37;6.67;;;18.80;66.00;;;;;;5033517;28;20452;-49
2021/06/03 04:39:31;;;;;;;7.73;6.40;;;18.70;65.60;;;;;;5033031;28;20975;-49
2021/06/03 04:41:57;;;;;;;7.60;6.77;;;19.10;65.90;;;;;;5033155;28;20522;-49
2021/06/03 04:44:24;;;;;;;7.50;6.33;;;19.10;65.80;;;;;;5032981;28;20443;-49
2021/06/03 04:46:51;;;;;;;9.27;6.17;;;18.90;65.20;;;;;;5064193;22;20502;-52
2021/06/03 04:49:18;;;;;;;6.37;5.80;;;19.10;64.90;;;;;;5054414;28;20487;-51
2021/06/03 04:51:44;;;;;;;9.97;6.87;;;19.50;65.10;;;;;;5053773;28;20926;-51
2021/06/03 04:54:12;;;;;;;7.40;6.60;;;19.40;64.80;;;;;;5054110;28;20434;-51
2021/06/03 04:56:38;;;;;;;7.33;6.63;;;19.30;64.30;;;;;;5052581;28;20999;-51
2021/06/03 04:59:05;;;;;;;9.43;7.03;;;19.40;64.10;;;;;;5053050;28;20573;-50
2021/06/03 05:01:31;;;;;;;9.33;6.00;;;19.40;63.90;;;;;;5052454;28;20440;-51
2021/06/03 05:03:59;;;;;;;6.63;5.93;;;19.50;63.80;;;;;;5053677;28;20427;-51
2021/06/03 05:06:25;;;;;;;8.00;6.80;;;19.80;63.90;;;;;;5053640;28;20705;-52
2021/06/03 05:08:51;;;;;;;8.10;6.63;;;19.30;63.00;;;;;;5052815;28;20469;-52
2021/06/03 05:11:17;;;;;;;10.77;5.97;;;19.70;63.20;;;;;;5053153;28;20543;-52
2021/06/03 05:13:44;;;;;;;8.63;6.40;;;19.60;63.00;;;;;;5052414;28;20489;-51
2021/06/03 05:16:10;;;;;;;9.83;6.70;;;19.60;62.60;;;;;;5052185;28;20838;-52
2021/06/03 05:18:38;;;;;;;11.23;7.17;;;19.70;62.50;;;;;;5053264;28;20982;-51
2021/06/03 05:21:05;;;;;;;6.60;5.87;;;19.80;62.50;;;;;;5052102;28;20508;-51
2021/06/03 05:23:32;;;;;;;9.40;6.57;;;20.00;62.60;;;;;;5053465;28;20785;-53
2021/06/03 05:25:58;;;;;;;9.47;6.10;;;20.30;62.90;;;;;;5053189;28;20444;-52
2021/06/03 05:28:25;;;;;;;7.83;6.83;;;19.80;62.00;;;;;;5052921;28;20475;-52
2021/06/03 05:30:51;;;;;;;10.40;6.77;;;20.50;62.50;;;;;;5053280;28;20532;-52
2021/06/03 05:33:17;;;;;;;13.23;7.90;;;20.20;62.00;;;;;;5053156;28;20446;-52
2021/06/03 05:35:43;;;;;;;8.60;6.33;;;20.50;62.20;;;;;;5053450;28;20460;-53
2021/06/03 05:38:11;;;;;;;14.37;6.70;;;20.70;62.20;;;;;;5052973;28;20446;-52
2021/06/03 05:40:37;;;;;;;7.80;6.37;;;20.40;61.60;;;;;;5053395;28;20995;-53
2021/06/03 05:43:03;;;;;;;9.93;6.93;;;20.70;61.80;;;;;;5051898;28;20474;-52
2021/06/03 05:45:30;;;;;;;9.93;5.60;;;20.70;61.60;;;;;;5053154;28;20989;-52
2021/06/03 05:47:56;;;;;;;8.93;6.47;;;20.80;61.40;;;;;;5053436;28;20742;-54
2021/06/03 05:50:24;;;;;;;9.70;6.33;;;21.00;61.40;;;;;;5053727;28;20494;-51
2021/06/03 05:52:51;;;;;;;14.80;5.80;;;20.90;61.20;;;;;;5053253;28;20495;-51
2021/06/03 05:55:19;;;;;;;9.37;7.07;;;20.90;61.00;;;;;;5053185;28;20461;-52
2021/06/03 05:57:45;;;;;;;12.27;6.70;;;21.40;62.00;;;;;;5051421;28;20453;-52
2021/06/03 06:00:14;;;;;;;12.30;6.33;;;21.00;60.40;;;;;;5052669;28;20472;-52
2021/06/03 06:02:52;;;;;;;8.07;6.20;;;21.20;60.30;;;;;;5053022;28;20758;-52
2021/06/03 06:08:04;;;;;;;7.73;5.93;;;21.30;60.20;;;;;;5052820;28;20431;-48
2021/06/03 06:10:32;;;;;;;9.87;5.67;;;21.50;60.40;;;;;;5051332;28;20456;-51
2021/06/03 06:12:59;;;;;;;12.77;6.67;;;21.40;60.00;;;;;;5052654;28;20430;-52
2021/06/03 06:15:26;;;;;;;22.03;6.50;;;21.30;59.70;;;;;;5052529;28;20482;-51
2021/06/03 06:17:52;;;;;;;9.13;6.17;;;21.50;59.60;;;;;;5052440;28;20544;-51
2021/06/03 06:20:19;;;;;;;10.40;6.00;;;21.80;59.90;;;;;;5051063;28;20571;-52
2021/06/03 06:22:45;;;;;;;9.63;5.57;;;21.40;59.60;;;;;;5052472;28;20500;-52
2021/06/03 06:25:12;;;;;;;10.07;6.50;;;21.80;59.90;;;;;;5052555;28;20489;-53
2021/06/03 06:27:40;;;;;;;12.53;6.30;;;22.00;59.80;;;;;;5052137;28;20470;-52
2021/06/03 06:30:09;;;;;;;8.33;5.90;;;21.70;59.40;;;;;;5052006;28;20428;-54
2021/06/03 06:32:35;;;;;;;8.60;5.90;;;21.90;59.40;;;;;;5052469;28;20432;-52
2021/06/03 06:35:01;;;;;;;8.33;6.40;;;21.70;59.00;;;;;;5052382;28;20461;-53
2021/06/03 06:37:27;;;;;;;6.43;5.20;;;21.90;59.00;;;;;;5050752;28;20452;-52
2021/06/03 06:39:53;;;;;;;5.60;4.80;;;21.90;59.00;;;;;;5051882;28;20473;-51
2021/06/03 06:42:20;;;;;;;10.50;5.63;;;21.90;58.90;;;;;;5051542;28;20436;-51
2021/06/03 06:44:47;;;;;;;5.83;4.83;;;22.10;59.00;;;;;;5051609;28;20961;-51
2021/06/03 06:47:13;;;;;;;6.40;5.23;;;22.20;58.80;;;;;;5051747;28;20453;-53
2021/06/03 06:49:39;;;;;;;8.40;5.47;;;22.10;58.60;;;;;;5052125;28;20430;-51
2021/06/03 06:52:06;;;;;;;12.80;5.90;;;22.20;58.60;;;;;;5050630;28;20810;-53
2021/06/03 06:54:32;;;;;;;7.90;5.23;;;22.20;58.60;;;;;;5051685;28;20443;-52
2021/06/03 06:56:58;;;;;;;8.70;4.90;;;22.10;58.40;;;;;;5051873;28;20540;-51
2021/06/03 06:59:24;;;;;;;12.80;6.23;;;22.10;58.50;;;;;;5051340;28;20478;-54
2021/06/03 07:01:52;;;;;;;9.83;5.03;;;22.30;58.40;;;;;;5051287;28;20459;-52
2021/06/03 07:04:18;;;;;;;8.90;5.83;;;22.10;58.20;;;;;;5051272;28;21025;-52
2021/06/03 07:06:44;;;;;;;8.50;5.70;;;22.30;58.40;;;;;;5051930;28;20450;-50
2021/06/03 07:09:10;;;;;;;8.43;5.53;;;22.30;58.30;;;;;;5051006;28;20529;-52
2021/06/03 07:11:37;;;;;;;6.20;4.97;;;22.20;58.00;;;;;;5051455;28;20803;-52
2021/06/03 07:14:04;;;;;;;11.90;5.93;;;22.20;57.90;;;;;;5051236;28;20458;-51
2021/06/03 07:16:31;;;;;;;10.13;6.00;;;22.10;57.80;;;;;;5051105;28;20459;-50
2021/06/03 07:18:58;;;;;;;6.13;5.00;;;22.10;57.80;;;;;;5050662;28;20537;-51
2021/06/03 07:21:24;;;;;;;6.00;4.90;;;22.30;58.00;;;;;;5051453;28;20554;-53
2021/06/03 07:23:51;;;;;;;12.17;6.40;;;22.40;58.10;;;;;;5049753;28;20537;-52
2021/06/03 07:26:17;;;;;;;11.90;5.47;;;22.60;58.30;;;;;;5049727;28;20468;-53
2021/06/03 07:28:43;;;;;;;7.00;6.17;;;22.40;57.70;;;;;;5050317;28;20917;-52
2021/06/03 07:31:10;;;;;;;10.40;6.57;;;22.60;57.90;;;;;;5051069;28;20469;-51
2021/06/03 07:33:36;;;;;;;7.37;5.90;;;22.20;57.30;;;;;;5051997;28;20461;-54
2021/06/03 07:36:04;;;;;;;7.90;4.33;;;22.50;57.30;;;;;;5054813;28;20546;-52
2021/06/03 07:38:30;;;;;;;14.13;5.40;;;22.40;57.10;;;;;;5054642;28;20436;-53
2021/06/03 07:40:57;;;;;;;7.10;5.70;;;22.60;57.50;;;;;;5054899;28;20477;-51
2021/06/03 07:43:23;;;;;;;5.20;4.03;;;22.50;57.20;;;;;;5055045;28;20449;-51
2021/06/03 07:45:49;;;;;;;11.23;4.43;;;22.40;56.80;;;;;;5055020;28;20479;-52
2021/06/03 07:48:16;;;;;;;8.73;5.20;;;22.60;56.60;;;;;;5054868;28;20459;-53
2021/06/03 07:50:42;;;;;;;10.07;5.17;;;22.50;56.10;;;;;;5055047;28;20438;-54
2021/06/03 07:53:11;;;;;;;6.70;5.50;;;22.60;56.50;;;;;;5055265;28;20442;-52
2021/06/03 07:55:37;;;;;;;7.63;5.30;;;22.10;56.30;;;;;;5054750;28;21058;-52
2021/06/03 07:58:06;;;;;;;6.73;5.00;;;22.60;56.60;;;;;;5054910;28;20914;-53
2021/06/03 08:00:32;;;;;;;5.83;5.33;;;22.60;56.40;;;;;;5054813;28;21090;-52
2021/06/03 08:02:59;;;;;;;7.90;5.10;;;22.80;56.40;;;;;;5054905;28;20547;-52
2021/06/03 08:05:26;;;;;;;10.10;4.97;;;22.60;56.30;;;;;;5055058;28;20826;-52
2021/06/03 08:07:54;;;;;;;8.73;4.63;;;22.50;56.00;;;;;;5054628;28;20428;-52
2021/06/03 08:10:24;;;;;;;7.87;4.90;;;22.40;55.90;;;;;;5054634;28;20500;-52
2021/06/03 08:12:51;;;;;;;7.63;4.60;;;22.50;56.00;;;;;;5054277;28;20622;-52
2021/06/03 08:15:18;;;;;;;7.70;4.97;;;22.50;55.70;;;;;;5054615;28;20456;-51
2021/06/03 08:17:45;;;;;;;6.60;4.60;;;22.70;55.70;;;;;;5054740;28;20462;-53
2021/06/03 08:20:14;;;;;;;9.20;4.90;;;22.60;55.10;;;;;;5053902;28;20513;-52
2021/06/03 08:22:41;;;;;;;9.50;5.20;;;22.70;55.00;;;;;;5054823;28;20588;-53
2021/06/03 08:25:08;;;;;;;8.67;5.00;;;22.30;54.60;;;;;;5054928;28;20461;-52
2021/06/03 08:27:35;;;;;;;5.10;4.60;;;22.80;55.10;;;;;;5055075;28;20435;-52
2021/06/03 08:30:02;;;;;;;7.27;5.83;;;23.00;55.10;;;;;;5054644;28;20512;-52
2021/06/03 08:32:29;;;;;;;9.23;5.50;;;22.30;54.50;;;;;;5054734;28;20927;-53
2021/06/03 08:34:55;;;;;;;8.20;4.50;;;22.70;55.00;;;;;;5055073;28;20929;-52
2021/06/03 08:37:21;;;;;;;10.83;6.03;;;22.60;54.90;;;;;;5054624;28;20427;-51
2021/06/03 08:39:49;;;;;;;6.80;5.03;;;22.50;54.80;;;;;;5053951;28;20478;-49
2021/06/03 08:42:16;;;;;;;5.40;3.97;;;22.60;54.00;;;;;;5053731;28;20486;-48
2021/06/03 08:44:43;;;;;;;8.60;4.60;;;22.70;53.50;;;;;;5051013;28;20520;-48
2021/06/03 08:47:10;;;;;;;8.37;5.07;;;22.70;53.40;;;;;;5053823;28;20452;-47
2021/06/03 08:49:37;;;;;;;5.80;4.40;;;22.40;53.30;;;;;;5053860;28;20567;-49
2021/06/03 08:52:06;;;;;;;5.00;4.50;;;23.00;53.60;;;;;;5054690;28;20453;-48
2021/06/03 08:54:33;;;;;;;5.73;3.63;;;23.20;53.40;;;;;;5053536;28;20810;-49
2021/06/03 08:56:59;;;;;;;5.23;4.67;;;22.60;52.70;;;;;;5053640;28;20460;-48
2021/06/03 08:59:26;;;;;;;7.27;4.07;;;22.50;52.70;;;;;;5053055;28;20907;-48
2021/06/03 09:01:53;;;;;;;8.90;4.70;;;23.20;53.20;;;;;;5052533;28;20600;-49
2021/06/03 09:04:19;;;;;;;9.93;4.90;;;23.00;53.10;;;;;;5053834;28;20436;-48
2021/06/03 09:06:45;;;;;;;4.93;4.27;;;23.20;53.20;;;;;;5053675;28;20508;-49
2021/06/03 09:09:13;;;;;;;6.83;4.30;;;22.70;52.50;;;;;;5053551;28;20463;-48
2021/06/03 09:11:40;;;;;;;6.93;4.70;;;23.00;52.50;;;;;;5053704;28;20818;-49
2021/06/03 09:14:08;;;;;;;9.90;6.03;;;23.10;52.60;;;;;;5053640;28;20436;-48
2021/06/03 09:16:37;;;;;;;4.30;3.80;;;23.30;51.70;;;;;;5053650;28;20461;-49
2021/06/03 09:19:09;;;;;;;5.23;4.00;;;23.40;51.30;;;;;;5052758;28;20448;-49
2021/06/03 09:21:39;;;;;;;4.10;3.70;;;22.90;50.70;;;;;;5053324;28;20439;-49
2021/06/03 09:24:09;;;;;;;5.73;3.90;;;23.10;50.80;;;;;;5053266;28;20440;-49
2021/06/03 09:26:37;;;;;;;6.73;3.90;;;23.40;50.90;;;;;;5053551;28;20449;-52
2021/06/03 09:29:05;;;;;;;8.63;5.50;;;23.60;50.90;;;;;;5053712;28;20433;-48
2021/06/03 09:31:32;;;;;;;9.80;4.63;;;23.20;50.40;;;;;;5053526;28;20574;-48
2021/06/03 09:34:01;;;;;;;4.73;3.97;;;23.60;50.50;;;;;;5052507;28;20450;-48
2021/06/03 09:36:38;;;;;;;7.00;4.93;;;23.50;50.20;;;;;;5052148;28;20547;-50
2021/06/03 09:39:25;;;;;;;4.17;3.50;;;23.30;50.20;;;;;;5053020;28;20437;-49
2021/06/03 09:41:54;;;;;;;10.17;4.70;;;23.70;50.40;;;;;;5052637;28;20591;-49
2021/06/03 09:44:24;;;;;;;8.63;4.30;;;23.60;50.40;;;;;;5052430;28;20446;-48
2021/06/03 09:46:53;;;;;;;10.90;4.00;;;23.60;50.40;;;;;;5052407;28;20472;-48
2021/06/03 09:49:23;;;;;;;7.00;4.00;;;23.40;50.10;;;;;;5052264;28;20470;-49
2021/06/03 09:51:57;;;;;;;7.07;3.63;;;23.30;49.70;;;;;;5052547;28;20462;-48
2021/06/03 09:54:25;;;;;;;8.37;4.50;;;23.60;49.70;;;;;;5052523;28;20441;-49
2021/06/03 09:56:54;;;;;;;10.53;3.77;;;23.50;49.70;;;;;;5052686;28;20842;-58
2021/06/03 09:59:26;;;;;;;7.63;3.67;;;23.80;49.60;;;;;;5052185;28;20802;-48
2021/06/03 10:02:02;;;;;;;4.33;3.20;;;23.70;49.40;;;;;;5052281;28;20433;-49
2021/06/03 10:04:34;;;;;;;5.40;3.70;;;23.60;48.80;;;;;;5051848;28;20430;-49
2021/06/03 10:07:07;;;;;;;4.47;3.70;;;23.70;48.70;;;;;;5051915;28;20495;-49
2021/06/03 10:09:35;;;;;;;5.13;3.80;;;23.80;48.80;;;;;;5051752;28;20431;-48
2021/06/03 10:12:02;;;;;;;5.60;4.00;;;23.80;48.70;;;;;;5052080;28;21033;-48
2021/06/03 10:14:28;;;;;;;5.67;3.90;;;24.00;49.00;;;;;;5052020;28;20437;-50
2021/06/03 10:16:55;;;;;;;8.67;4.40;;;23.70;48.60;;;;;;5051807;28;20458;-50
2021/06/03 10:19:23;;;;;;;6.20;3.60;;;23.80;48.60;;;;;;5049625;28;20537;-49
2021/06/03 10:22:13;;;;;;;7.00;4.20;;;24.00;48.60;;;;;;5051991;28;20426;-48
2021/06/03 10:24:54;;;;;;;6.77;4.17;;;23.80;48.20;;;;;;5052039;28;20435;-49
2021/06/03 10:27:21;;;;;;;10.93;4.67;;;23.90;48.40;;;;;;5051842;28;20448;-47
2021/06/03 10:29:49;;;;;;;5.07;3.47;;;23.90;48.40;;;;;;5051923;28;20419;-48
2021/06/03 10:32:16;;;;;;;4.63;3.50;;;24.00;47.90;;;;;;5050553;28;20546;-48
2021/06/03 10:34:43;;;;;;;6.07;3.67;;;24.10;47.90;;;;;;5052186;28;20429;-49
2021/06/03 10:37:13;;;;;;;4.13;3.73;;;23.90;47.70;;;;;;5052206;28;20450;-48
2021/06/03 10:39:40;;;;;;;4.73;4.20;;;24.50;48.00;;;;;;5051156;28;20991;-48
2021/06/03 10:42:07;;;;;;;4.80;3.57;;;24.20;47.70;;;;;;5051704;28;20524;-49
2021/06/03 10:44:36;;;;;;;3.80;3.27;;;24.20;47.50;;;;;;5051882;28;20467;-48
2021/06/03 10:47:02;;;;;;;5.87;3.60;;;24.20;47.40;;;;;;5049246;22;20924;-46
2021/06/03 10:49:33;;;;;;;7.73;3.70;;;24.40;47.30;;;;;;5030246;28;20667;-46
2021/06/03 10:52:01;;;;;;;5.03;3.60;;;24.30;47.50;;;;;;5030935;28;20438;-46
2021/06/03 10:54:47;;;;;;;4.20;3.60;;;24.10;47.30;;;;;;5032486;28;20534;-46
2021/06/03 10:57:15;;;;;;;7.80;5.90;;;24.40;47.40;;;;;;5031367;28;20454;-46
2021/06/03 10:59:42;;;;;;;4.90;4.20;;;24.10;47.40;;;;;;5031132;28;20471;-46
2021/06/03 11:02:09;;;;;;;10.07;4.50;;;24.50;47.90;;;;;;5030607;28;20446;-46
2021/06/03 11:04:38;;;;;;;4.20;3.80;;;24.10;47.60;;;;;;5030187;28;20434;-45
2021/06/03 11:07:06;;;;;;;9.80;4.00;;;24.30;47.50;;;;;;5030004;28;20557;-46
2021/06/03 11:09:34;;;;;;;4.37;3.23;;;24.10;47.10;;;;;;5030069;28;20443;-46
2021/06/03 11:12:16;;;;;;;5.17;3.80;;;24.20;46.70;;;;;;5030891;28;20458;-47
2021/06/03 11:15:04;;;;;;;4.43;3.17;;;24.20;46.50;;;;;;5029082;28;20542;-47
2021/06/03 11:17:54;;;;;;;4.87;3.33;;;24.50;46.20;;;;;;5028957;28;20468;-47
2021/06/03 11:20:44;;;;;;;4.03;3.40;;;24.20;46.00;;;;;;5030061;28;20510;-47
2021/06/03 11:23:45;;;;;;;7.00;3.43;;;24.30;46.40;;;;;;5031162;28;20435;-46
2021/06/03 11:26:49;;;;;;;5.07;4.10;;;24.70;46.80;;;;;;5030375;28;20458;-46
2021/06/03 11:29:19;;;;;;;6.83;3.70;;;24.30;46.10;;;;;;5029940;28;20435;-46
2021/06/03 11:31:46;;;;;;;6.80;3.33;;;24.20;45.70;;;;;;5029968;28;20431;-46
2021/06/03 11:34:15;;;;;;;4.93;4.10;;;24.60;45.60;;;;;;5029942;28;20435;-46
2021/06/03 11:36:43;;;;;;;7.40;3.60;;;24.60;45.70;;;;;;5030028;28;20523;-46
2021/06/03 11:39:38;;;;;;;4.70;3.30;;;24.70;45.70;;;;;;5030396;28;20535;-45
2021/06/03 11:42:32;;;;;;;4.63;3.50;;;24.60;45.70;;;;;;5030597;28;20787;-45
2021/06/03 11:45:22;;;;;;;6.03;3.70;;;24.40;45.00;;;;;;5030342;28;20446;-46
2021/06/03 11:48:03;;;;;;;3.90;3.53;;;24.70;45.20;;;;;;5030190;28;20541;-46
2021/06/03 11:50:42;;;;;;;3.97;3.53;;;24.70;45.20;;;;;;5030855;28;20439;-46
2021/06/03 11:53:10;;;;;;;3.70;3.30;;;24.70;45.20;;;;;;5029134;28;20479;-46
2021/06/03 11:55:38;;;;;;;3.70;3.40;;;24.70;45.20;;;;;;5030236;28;20481;-46
2021/06/03 11:58:13;;;;;;;5.00;3.30;;;24.90;45.20;;;;;;5030328;28;21015;-47
2021/06/03 12:00:43;;;;;;;4.43;3.80;;;24.80;44.70;;;;;;5030643;28;20478;-45
2021/06/03 12:03:28;;;;;;;6.07;3.50;;;24.70;44.60;;;;;;5030600;28;20803;-45
2021/06/03 12:05:56;;;;;;;3.77;3.17;;;25.00;44.40;;;;;;5030457;28;20455;-46
2021/06/03 12:08:42;;;;;;;7.60;4.00;;;25.00;44.50;;;;;;5029598;28;20814;-46
2021/06/03 12:11:12;;;;;;;5.70;3.87;;;25.30;44.80;;;;;;5030156;28;20454;-46
2021/06/03 12:13:39;;;;;;;4.20;3.53;;;24.70;44.30;;;;;;5029830;28;20543;-45
2021/06/03 12:16:07;;;;;;;4.20;3.83;;;25.30;44.60;;;;;;5030196;28;20493;-46
2021/06/03 12:18:36;;;;;;;6.40;3.70;;;25.00;44.40;;;;;;5029841;28;20493;-45
2021/06/03 12:21:03;;;;;;;4.03;3.47;;;25.30;44.40;;;;;;5032085;28;20490;-45
2021/06/03 12:23:30;;;;;;;4.33;3.80;;;24.90;44.10;;;;;;5033449;28;20458;-45
2021/06/03 12:25:56;;;;;;;4.20;3.03;;;25.10;44.10;;;;;;5033739;28;20465;-46
2021/06/03 12:28:22;;;;;;;10.70;3.90;;;24.60;43.60;;;;;;5034095;28;20470;-46
2021/06/03 12:30:48;;;;;;;3.43;3.13;;;25.30;44.00;;;;;;5033667;28;20909;-45
2021/06/03 12:33:23;;;;;;;3.60;3.20;;;25.00;43.60;;;;;;5033641;28;20466;-45
2021/06/03 12:35:51;;;;;;;3.90;3.50;;;25.00;43.70;;;;;;5033571;28;20839;-46
2021/06/03 12:38:30;;;;;;;5.60;3.93;;;24.90;43.50;;;;;;5033264;28;20429;-46
2021/06/03 12:41:01;;;;;;;7.80;3.33;;;24.90;43.40;;;;;;5033591;28;20495;-45
2021/06/03 12:43:35;;;;;;;5.17;3.47;;;25.10;43.60;;;;;;5034051;28;20494;-45
2021/06/03 12:46:01;;;;;;;4.60;3.50;;;25.00;43.30;;;;;;5033847;28;20815;-45
2021/06/03 12:48:30;;;;;;;4.87;4.37;;;24.70;43.00;;;;;;5033336;28;20446;-46
2021/06/03 12:50:58;;;;;;;7.63;4.27;;;24.70;43.00;;;;;;5033749;28;20443;-46
2021/06/03 12:53:25;;;;;;;6.67;3.90;;;24.70;43.00;;;;;;5034074;28;20531;-46
2021/06/03 12:55:52;;;;;;;3.67;3.37;;;25.00;43.20;;;;;;5033402;28;20455;-45